createdAt,value
2017-07-25T00:03:18.036Z,15.68
2017-07-25T00:08:14.425Z,15.73
2017-07-25T00:13:11.884Z,15.76
2017-07-25T00:18:08.366Z,15.77
2017-07-25T00:23:05.340Z,15.64
2017-07-25T00:28:01.068Z,15.73
2017-07-25T00:32:56.951Z,15.73
2017-07-25T00:37:52.866Z,15.67
2017-07-25T00:42:48.775Z,15.72
2017-07-25T00:47:45.718Z,15.73
2017-07-25T00:52:42.292Z,15.64
2017-07-25T00:57:38.920Z,15.64
2017-07-25T01:02:34.613Z,15.68
2017-07-25T01:07:31.225Z,15.72
2017-07-25T01:12:26.393Z,15.61
2017-07-25T01:17:22.623Z,15.52
2017-07-25T01:22:18.686Z,15.40
2017-07-25T01:27:16.306Z,15.44
2017-07-25T01:32:11.867Z,15.43
2017-07-25T01:37:07.878Z,15.55
2017-07-25T01:42:03.804Z,15.47
2017-07-25T01:47:00.003Z,15.54
2017-07-25T01:51:56.077Z,15.43
2017-07-25T01:56:52.774Z,15.35
2017-07-25T02:01:48.773Z,15.36
2017-07-25T02:06:44.473Z,15.46
2017-07-25T02:11:40.614Z,15.33
2017-07-25T02:16:37.629Z,15.37
2017-07-25T02:21:34.288Z,15.36
2017-07-25T02:26:30.400Z,15.33
2017-07-25T02:31:26.124Z,15.29
2017-07-25T02:36:22.083Z,15.35
2017-07-25T02:41:18.950Z,15.27
2017-07-25T02:46:15.738Z,15.28
2017-07-25T02:51:11.309Z,15.31
2017-07-25T02:56:08.562Z,15.33
2017-07-25T03:01:04.384Z,15.22
2017-07-25T03:06:02.897Z,15.22
2017-07-25T03:10:58.247Z,15.27
2017-07-25T03:15:54.195Z,15.28
2017-07-25T03:20:50.795Z,15.27
2017-07-25T03:25:46.865Z,15.29
2017-07-25T03:30:42.577Z,15.25
2017-07-25T03:35:38.547Z,15.33
2017-07-25T03:40:34.094Z,15.33
2017-07-25T03:45:31.398Z,15.33
2017-07-25T03:50:27.373Z,15.33
2017-07-25T03:55:23.218Z,15.31
2017-07-25T04:00:20.601Z,15.39
2017-07-25T04:05:17.554Z,15.49
2017-07-25T04:10:13.856Z,15.52
2017-07-25T04:15:09.443Z,15.51
2017-07-25T04:20:05.288Z,15.49
2017-07-25T04:25:01.269Z,15.52
2017-07-25T04:29:58.275Z,15.67
2017-07-25T04:34:54.630Z,15.70
2017-07-25T04:39:50.512Z,15.65
2017-07-25T04:44:47.446Z,15.80
2017-07-25T04:49:43.815Z,15.76
2017-07-25T04:54:39.421Z,15.75
2017-07-25T04:59:35.638Z,15.82
2017-07-25T05:04:31.480Z,15.83
2017-07-25T05:09:28.556Z,15.83
2017-07-25T05:14:24.058Z,15.83
2017-07-25T05:19:20.638Z,15.77
2017-07-25T05:24:17.951Z,15.84
2017-07-25T05:29:13.434Z,15.86
2017-07-25T05:34:09.487Z,15.84
2017-07-25T05:39:05.367Z,15.86
2017-07-25T05:44:01.249Z,15.94
2017-07-25T05:48:57.261Z,15.90
2017-07-25T05:53:54.042Z,15.86
2017-07-25T05:58:49.514Z,15.80
2017-07-25T06:03:45.494Z,15.91
2017-07-25T06:08:41.331Z,15.86
2017-07-25T06:13:38.479Z,15.84
2017-07-25T06:18:35.241Z,15.84
2017-07-25T06:23:30.914Z,15.84
2017-07-25T06:28:28.031Z,15.72
2017-07-25T06:33:24.453Z,15.70
2017-07-25T06:38:20.493Z,15.75
2017-07-25T06:43:16.331Z,15.61
2017-07-25T06:48:12.121Z,15.51
2017-07-25T06:53:08.845Z,15.57
2017-07-25T06:58:04.364Z,15.55
2017-07-25T07:03:00.619Z,15.52
2017-07-25T07:07:56.382Z,15.65
2017-07-25T07:12:53.038Z,15.51
2017-07-25T07:17:49.454Z,15.51
2017-07-25T07:22:46.384Z,15.52
2017-07-25T07:27:42.816Z,15.58
2017-07-25T07:32:39.640Z,15.57
2017-07-25T07:37:36.786Z,15.65
2017-07-25T07:42:33.653Z,15.68
2017-07-25T07:47:30.581Z,15.95
2017-07-25T07:52:26.044Z,15.97
2017-07-25T07:57:22.415Z,16.12
2017-07-25T08:02:18.686Z,16.15
2017-07-25T08:07:14.878Z,16.23
2017-07-25T08:12:12.997Z,16.39
2017-07-25T08:17:08.328Z,16.49
2017-07-25T08:22:04.908Z,16.57
2017-07-25T08:27:03.164Z,16.69
2017-07-25T08:31:59.065Z,16.84
2017-07-25T08:36:54.750Z,16.84
2017-07-25T08:41:50.870Z,16.75
2017-07-25T08:46:46.957Z,16.91
2017-07-25T08:51:42.816Z,16.97
2017-07-25T08:56:38.387Z,16.90
2017-07-25T09:01:35.270Z,16.89
2017-07-25T09:06:32.297Z,17.12
2017-07-25T09:11:28.481Z,17.19
2017-07-25T09:16:24.423Z,17.23
2017-07-25T09:21:21.476Z,17.34
2017-07-25T09:26:18.158Z,17.26
2017-07-25T09:31:13.692Z,17.15
2017-07-25T09:36:09.666Z,17.11
2017-07-25T09:41:06.121Z,17.14
2017-07-25T09:46:03.149Z,17.14
2017-07-25T09:50:58.686Z,17.16
2017-07-25T09:55:54.453Z,17.19
2017-07-25T10:00:50.551Z,17.20
2017-07-25T10:05:46.318Z,17.23
2017-07-25T10:10:42.475Z,17.23
2017-07-25T10:15:38.861Z,17.16
2017-07-25T10:20:36.567Z,17.24
2017-07-25T10:25:31.685Z,17.11
2017-07-25T10:30:28.240Z,17.27
2017-07-25T10:35:24.432Z,17.22
2017-07-25T10:40:20.350Z,17.42
2017-07-25T10:45:16.923Z,17.49
2017-07-25T10:50:14.107Z,17.54
2017-07-25T10:55:09.697Z,17.54
2017-07-25T11:00:05.404Z,17.45
2017-07-25T11:05:01.198Z,17.34
2017-07-25T11:09:58.014Z,17.39
2017-07-25T11:14:53.699Z,17.33
2017-07-25T11:19:49.724Z,17.51
2017-07-25T11:24:45.971Z,17.71
2017-07-25T11:29:44.585Z,17.82
2017-07-25T11:34:40.560Z,18.10
2017-07-25T11:39:38.129Z,18.35
2017-07-25T11:44:33.694Z,18.41
2017-07-25T11:49:30.514Z,18.40
2017-07-25T11:54:26.261Z,18.45
2017-07-25T11:59:23.267Z,18.49
2017-07-25T12:04:19.101Z,18.70
2017-07-25T12:09:16.352Z,18.71
2017-07-25T12:14:11.679Z,18.43
2017-07-25T12:19:07.354Z,18.20
2017-07-25T12:24:03.171Z,18.19
2017-07-25T12:28:59.384Z,18.31
2017-07-25T12:33:55.276Z,18.50
2017-07-25T12:38:51.798Z,18.38
2017-07-25T12:43:48.689Z,18.44
2017-07-25T12:48:45.178Z,18.56
2017-07-25T12:53:41.015Z,18.52
2017-07-25T12:58:37.096Z,18.58
2017-07-25T13:03:34.163Z,18.55
2017-07-25T13:08:30.794Z,18.75
2017-07-25T13:13:27.769Z,18.81
2017-07-25T13:18:23.327Z,18.77
2017-07-25T13:23:19.102Z,18.77
2017-07-25T13:28:15.860Z,18.68
2017-07-25T13:33:11.159Z,18.44
2017-07-25T13:38:06.912Z,18.55
2017-07-25T13:43:05.043Z,18.47
2017-07-25T13:48:00.710Z,18.53
2017-07-25T13:52:56.803Z,18.63
2017-07-25T13:57:54.041Z,18.75
2017-07-25T14:02:49.514Z,18.70
2017-07-25T14:07:45.541Z,18.77
2017-07-25T14:12:41.365Z,18.73
2017-07-25T14:17:37.088Z,18.68
2017-07-25T14:22:33.998Z,18.65
2017-07-25T14:27:29.585Z,18.70
2017-07-25T14:32:25.577Z,18.65
2017-07-25T14:37:22.342Z,18.60
2017-07-25T14:42:19.729Z,18.66
2017-07-25T14:47:15.282Z,18.58
2017-07-25T14:52:10.959Z,18.44
2017-07-25T14:57:07.708Z,18.31
2017-07-25T15:02:02.768Z,17.98
2017-07-25T15:06:59.761Z,17.92
2017-07-25T15:11:56.399Z,17.97
2017-07-25T15:16:51.986Z,17.83
2017-07-25T15:21:48.555Z,17.87
2017-07-25T15:26:44.562Z,17.85
2017-07-25T15:31:40.903Z,18.04
2017-07-25T15:36:37.138Z,17.97
2017-07-25T15:41:32.710Z,17.89
2017-07-25T15:46:28.537Z,17.76
2017-07-25T15:51:24.423Z,17.80
2017-07-25T15:56:20.281Z,17.72
2017-07-25T16:01:16.154Z,17.70
2017-07-25T16:06:11.933Z,17.67
2017-07-25T16:11:08.492Z,17.46
2017-07-25T16:16:04.773Z,17.48
2017-07-25T16:21:00.315Z,17.48
2017-07-25T16:25:56.220Z,17.34
2017-07-25T16:30:53.212Z,17.24
2017-07-25T16:35:49.238Z,17.29
2017-07-25T16:40:45.552Z,17.26
2017-07-25T16:45:41.359Z,17.22
2017-07-25T16:50:36.901Z,17.15
2017-07-25T16:55:32.632Z,17.11
2017-07-25T17:00:28.447Z,17.02
2017-07-25T17:05:25.180Z,16.99
2017-07-25T17:10:22.199Z,16.86
2017-07-25T17:15:17.466Z,16.93
2017-07-25T17:20:13.701Z,16.83
2017-07-25T17:25:10.567Z,16.78
2017-07-25T17:30:07.227Z,16.72
2017-07-25T17:35:03.644Z,16.64
2017-07-25T17:39:59.556Z,16.68
2017-07-25T17:44:56.209Z,16.71
2017-07-25T17:49:52.289Z,16.65
2017-07-25T17:54:49.123Z,16.72
2017-07-25T17:59:44.531Z,16.75
2017-07-25T18:04:40.385Z,16.86
2017-07-25T18:09:36.188Z,16.87
2017-07-25T18:14:31.923Z,16.78
2017-07-25T18:19:29.168Z,16.81
2017-07-25T18:24:24.640Z,16.81
2017-07-25T18:29:21.408Z,16.78
2017-07-25T18:34:18.080Z,16.79
2017-07-25T18:39:13.886Z,16.76
2017-07-25T18:44:09.510Z,16.69
2017-07-25T18:49:06.553Z,16.72
2017-07-25T18:54:03.115Z,16.81
2017-07-25T18:58:59.585Z,16.84
2017-07-25T19:03:55.285Z,16.79
2017-07-25T19:08:52.269Z,16.79
2017-07-25T19:13:47.999Z,16.68
2017-07-25T19:18:45.711Z,16.65
2017-07-25T19:23:41.133Z,16.60
2017-07-25T19:28:37.005Z,16.60
2017-07-25T19:33:32.787Z,16.61
2017-07-25T19:38:29.469Z,16.61
2017-07-25T19:43:26.874Z,16.64
2017-07-25T19:48:22.751Z,16.64
2017-07-25T19:53:19.639Z,16.64
2017-07-25T19:58:15.387Z,16.53
2017-07-25T20:03:11.162Z,16.65
2017-07-25T20:08:07.107Z,16.65
2017-07-25T20:13:03.026Z,16.57
2017-07-25T20:17:58.696Z,16.69
2017-07-25T20:22:54.380Z,16.57
2017-07-25T20:27:51.686Z,16.71
2017-07-25T20:32:47.319Z,16.47
2017-07-25T20:37:44.143Z,16.56
2017-07-25T20:42:43.052Z,16.49
2017-07-25T20:47:38.521Z,16.49
2017-07-25T20:52:36.605Z,16.42
2017-07-25T20:57:32.851Z,16.56
2017-07-25T21:02:30.108Z,16.53
2017-07-25T21:07:25.769Z,16.60
2017-07-25T21:12:23.948Z,16.64
2017-07-25T21:17:20.627Z,16.47
2017-07-25T21:22:16.257Z,16.50
2017-07-25T21:27:12.383Z,16.61
2017-07-25T21:32:08.628Z,16.61
2017-07-25T21:37:04.529Z,16.53
2017-07-25T21:42:00.287Z,16.60
2017-07-25T21:46:57.221Z,16.60
2017-07-25T21:51:54.974Z,16.54
2017-07-25T21:56:51.475Z,16.54
2017-07-25T22:01:49.100Z,16.57
2017-07-25T22:06:44.547Z,16.53
2017-07-25T22:11:41.376Z,16.51
2017-07-25T22:16:37.001Z,16.46
2017-07-25T22:21:32.826Z,16.41
2017-07-25T22:26:28.584Z,16.35
2017-07-25T22:31:24.434Z,16.43
2017-07-25T22:36:20.335Z,16.36
2017-07-25T22:41:16.410Z,16.31
2017-07-25T22:46:13.929Z,16.38
2017-07-25T22:51:10.922Z,16.38
2017-07-25T22:56:07.122Z,16.33
2017-07-25T23:01:03.072Z,16.38
2017-07-25T23:05:58.871Z,16.23
2017-07-25T23:10:55.721Z,16.16
2017-07-25T23:15:51.380Z,16.23
2017-07-25T23:20:47.482Z,16.16
2017-07-25T23:25:45.589Z,16.13
2017-07-25T23:30:41.900Z,16.10
2017-07-25T23:35:38.787Z,16.08
2017-07-25T23:40:35.510Z,16.09
2017-07-25T23:45:33.098Z,16.02
2017-07-25T23:50:29.828Z,16.09
2017-07-25T23:55:25.606Z,16.05
